createdAt,value
2019-03-09T00:01:52.653Z,2.60
2019-03-09T00:04:20.646Z,2.60
2019-03-09T00:06:48.287Z,2.80
2019-03-09T00:09:16.231Z,3.50
2019-03-09T00:11:44.194Z,3.23
2019-03-09T00:14:12.570Z,6.23
2019-03-09T00:16:40.946Z,4.50
2019-03-09T00:19:08.701Z,3.40
2019-03-09T00:21:36.350Z,2.07
2019-03-09T00:24:22.006Z,2.07
2019-03-09T00:26:59.966Z,5.33
2019-03-09T00:29:49.534Z,3.63
2019-03-09T00:32:19.144Z,2.40
2019-03-09T00:34:47.725Z,4.60
2019-03-09T00:37:15.713Z,2.07
2019-03-09T00:39:43.623Z,3.43
2019-03-09T00:42:12.053Z,3.17
2019-03-09T00:44:40.060Z,7.10
2019-03-09T00:47:08.546Z,3.07
2019-03-09T00:49:36.471Z,4.60
2019-03-09T00:52:04.217Z,3.47
2019-03-09T00:54:32.149Z,6.00
2019-03-09T00:57:00.638Z,5.67
2019-03-09T00:59:28.613Z,5.13
2019-03-09T01:01:56.240Z,2.70
2019-03-09T01:04:24.582Z,5.07
2019-03-09T01:06:52.221Z,4.00
2019-03-09T01:09:19.873Z,4.47
2019-03-09T01:11:47.813Z,9.73
2019-03-09T01:14:16.170Z,3.73
2019-03-09T01:16:43.801Z,4.20
2019-03-09T01:19:11.469Z,5.17
2019-03-09T01:21:39.820Z,5.87
2019-03-09T01:24:08.366Z,3.97
2019-03-09T01:26:36.010Z,5.10
2019-03-09T01:29:04.082Z,6.37
2019-03-09T01:31:32.448Z,2.00
2019-03-09T01:34:00.112Z,4.40
2019-03-09T01:36:28.302Z,4.13
2019-03-09T01:38:55.957Z,3.40
2019-03-09T01:41:24.246Z,6.00
2019-03-09T01:43:52.299Z,2.63
2019-03-09T01:46:20.278Z,6.70
2019-03-09T01:48:48.201Z,2.63
2019-03-09T01:51:15.922Z,3.57
2019-03-09T01:53:44.278Z,4.00
2019-03-09T01:56:12.197Z,2.43
2019-03-09T01:58:40.210Z,4.80
2019-03-09T02:01:08.135Z,2.37
2019-03-09T02:03:36.414Z,2.70
2019-03-09T02:06:04.735Z,8.57
2019-03-09T02:08:32.666Z,3.13
2019-03-09T02:11:00.648Z,3.03
2019-03-09T02:13:28.542Z,3.53
2019-03-09T02:15:57.224Z,3.47
2019-03-09T02:18:25.162Z,5.40
2019-03-09T02:20:53.384Z,8.73
2019-03-09T02:23:21.276Z,4.13
2019-03-09T02:25:49.246Z,2.07
2019-03-09T02:28:17.197Z,4.53
2019-03-09T02:30:45.227Z,1.83
2019-03-09T02:33:13.222Z,5.07
2019-03-09T02:35:41.399Z,1.90
2019-03-09T02:38:20.726Z,1.83
2019-03-09T02:40:48.427Z,2.50
2019-03-09T02:43:16.090Z,1.90
2019-03-09T02:45:44.225Z,4.73
2019-03-09T02:48:12.398Z,1.70
2019-03-09T02:50:55.594Z,1.20
2019-03-09T02:53:23.906Z,1.53
2019-03-09T02:55:51.982Z,3.17
2019-03-09T02:58:19.930Z,1.47
2019-03-09T03:00:51.202Z,2.70
2019-03-09T03:03:19.143Z,3.27
2019-03-09T03:05:47.088Z,1.70
2019-03-09T03:08:15.041Z,1.23
2019-03-09T03:10:42.949Z,1.30
2019-03-09T03:13:11.242Z,1.10
2019-03-09T03:15:39.424Z,1.00
2019-03-09T03:18:07.074Z,0.90
2019-03-09T03:20:35.352Z,1.43
2019-03-09T03:23:03.272Z,1.00
2019-03-09T03:25:31.245Z,0.80
2019-03-09T03:27:59.611Z,0.80
2019-03-09T03:30:27.865Z,0.80
2019-03-09T03:32:56.434Z,0.80
2019-03-09T03:35:24.487Z,1.20
2019-03-09T03:37:52.742Z,1.07
2019-03-09T03:40:20.696Z,1.13
2019-03-09T03:42:48.609Z,0.60
2019-03-09T03:45:16.976Z,0.90
2019-03-09T03:47:45.019Z,0.70
2019-03-09T03:50:13.031Z,1.60
2019-03-09T03:52:41.341Z,1.20
2019-03-09T03:55:09.246Z,0.70
2019-03-09T03:57:36.980Z,0.87
2019-03-09T04:00:05.549Z,1.23
2019-03-09T04:02:33.913Z,0.90
2019-03-09T04:05:01.883Z,0.80
2019-03-09T04:07:30.254Z,0.80
2019-03-09T04:09:58.297Z,1.00
2019-03-09T04:12:26.470Z,1.37
2019-03-09T04:14:54.386Z,0.77
2019-03-09T04:17:22.722Z,1.00
2019-03-09T04:19:50.842Z,0.70
2019-03-09T04:22:19.048Z,0.83
2019-03-09T04:24:47.506Z,0.87
2019-03-09T04:27:15.479Z,2.20
2019-03-09T04:29:43.689Z,0.90
2019-03-09T04:32:12.125Z,2.67
2019-03-09T04:34:40.104Z,1.30
2019-03-09T04:37:08.038Z,0.90
2019-03-09T04:39:36.289Z,1.10
2019-03-09T04:42:04.690Z,1.10
2019-03-09T04:44:33.225Z,1.30
2019-03-09T04:47:00.974Z,0.90
2019-03-09T04:49:29.318Z,1.20
2019-03-09T04:51:57.433Z,0.90
2019-03-09T04:54:25.449Z,2.00
2019-03-09T04:56:53.796Z,0.50
2019-03-09T04:59:21.709Z,0.53
2019-03-09T05:01:49.621Z,1.70
2019-03-09T05:04:34.616Z,0.50
2019-03-09T05:07:02.904Z,0.73
2019-03-09T05:09:47.352Z,0.50
2019-03-09T05:12:15.305Z,0.70
2019-03-09T05:14:43.257Z,0.50
2019-03-09T05:17:11.203Z,0.73
2019-03-09T05:19:38.893Z,1.10
2019-03-09T05:22:06.804Z,0.70
2019-03-09T05:24:34.716Z,0.73
2019-03-09T05:27:02.365Z,0.90
2019-03-09T05:29:30.301Z,1.07
2019-03-09T05:31:58.820Z,1.20
2019-03-09T05:34:27.117Z,1.43
2019-03-09T05:36:55.684Z,1.40
2019-03-09T05:39:23.322Z,1.40
2019-03-09T05:41:50.960Z,1.53
2019-03-09T05:44:18.917Z,1.30
2019-03-09T05:46:47.285Z,1.50
2019-03-09T05:49:15.790Z,1.60
2019-03-09T05:51:43.711Z,1.73
2019-03-09T05:54:12.057Z,1.50
2019-03-09T05:56:40.268Z,1.77
2019-03-09T05:59:08.697Z,1.97
2019-03-09T06:01:36.368Z,1.83
2019-03-09T06:04:04.045Z,2.50
2019-03-09T06:06:32.024Z,2.17
2019-03-09T06:09:00.015Z,1.90
2019-03-09T06:11:28.498Z,2.27
2019-03-09T06:13:56.538Z,2.30
2019-03-09T06:16:24.798Z,2.43
2019-03-09T06:18:52.729Z,4.27
2019-03-09T06:21:20.949Z,2.30
2019-03-09T06:23:49.315Z,2.20
2019-03-09T06:26:17.645Z,2.80
2019-03-09T06:28:45.303Z,2.53
2019-03-09T06:31:13.468Z,2.50
2019-03-09T06:33:42.312Z,2.37
2019-03-09T06:36:29.401Z,2.20
2019-03-09T06:39:07.709Z,2.43
2019-03-09T06:41:37.785Z,2.30
2019-03-09T06:44:06.146Z,2.47
2019-03-09T06:46:34.103Z,3.47
2019-03-09T06:49:02.689Z,2.57
2019-03-09T06:51:30.797Z,2.40
2019-03-09T06:53:58.868Z,2.53
2019-03-09T06:56:27.284Z,2.17
2019-03-09T06:58:55.578Z,4.20
2019-03-09T07:01:23.513Z,2.67
2019-03-09T07:03:51.433Z,2.80
2019-03-09T07:06:19.810Z,2.70
2019-03-09T07:08:47.521Z,3.37
2019-03-09T07:11:15.849Z,3.93
2019-03-09T07:13:52.494Z,5.13
2019-03-09T07:16:13.769Z,3.87
2019-03-09T07:18:42.162Z,4.60
2019-03-09T07:21:10.066Z,3.97
2019-03-09T07:23:38.269Z,3.43
2019-03-09T07:26:06.297Z,3.50
2019-03-09T07:28:34.297Z,4.60
2019-03-09T07:31:02.677Z,4.07
2019-03-09T07:33:30.329Z,4.03
2019-03-09T07:35:58.305Z,6.63
2019-03-09T07:38:26.797Z,3.93
2019-03-09T07:40:54.546Z,8.27
2019-03-09T07:43:22.733Z,3.97
2019-03-09T07:45:50.961Z,3.97
2019-03-09T07:48:19.202Z,3.80
2019-03-09T07:50:46.973Z,3.93
2019-03-09T07:53:14.885Z,5.33
2019-03-09T07:55:42.861Z,4.33
2019-03-09T07:58:10.565Z,5.00
2019-03-09T08:00:38.219Z,4.70
2019-03-09T08:03:06.193Z,6.43
2019-03-09T08:05:34.191Z,5.47
2019-03-09T08:08:02.169Z,5.30
2019-03-09T08:10:29.977Z,5.20
2019-03-09T08:12:57.980Z,6.80
2019-03-09T08:15:25.625Z,5.70
2019-03-09T08:17:55.771Z,5.20
2019-03-09T08:20:23.530Z,5.10
2019-03-09T08:22:51.205Z,6.77
2019-03-09T08:25:19.285Z,4.20
2019-03-09T08:27:47.032Z,5.90
2019-03-09T08:30:15.704Z,4.57
2019-03-09T08:32:43.449Z,3.97
2019-03-09T08:35:11.445Z,4.07
2019-03-09T08:37:39.473Z,3.17
2019-03-09T08:40:08.032Z,4.00
2019-03-09T08:42:36.155Z,3.77
2019-03-09T08:45:04.118Z,6.07
2019-03-09T08:47:31.787Z,4.27
2019-03-09T08:49:59.737Z,3.43
2019-03-09T08:52:27.714Z,4.80
2019-03-09T08:54:55.671Z,3.80
2019-03-09T08:57:23.714Z,2.97
2019-03-09T08:59:51.215Z,3.90
2019-03-09T09:02:19.186Z,3.20
2019-03-09T09:04:46.826Z,2.80
2019-03-09T09:07:15.121Z,3.13
2019-03-09T09:09:43.318Z,3.87
2019-03-09T09:12:11.009Z,3.27
2019-03-09T09:14:39.231Z,2.77
2019-03-09T09:17:07.228Z,2.20
2019-03-09T09:19:35.853Z,3.53
2019-03-09T09:22:03.866Z,2.70
2019-03-09T09:24:32.093Z,5.20
2019-03-09T09:27:03.385Z,3.37
2019-03-09T09:29:31.161Z,4.10
2019-03-09T09:32:01.254Z,2.50
2019-03-09T09:34:29.634Z,2.67
2019-03-09T09:36:57.640Z,4.90
2019-03-09T09:39:25.981Z,3.27
2019-03-09T09:41:54.014Z,2.57
2019-03-09T09:44:22.742Z,3.23
2019-03-09T09:46:50.682Z,2.40
2019-03-09T09:49:18.949Z,5.13
2019-03-09T09:51:47.261Z,3.13
2019-03-09T09:54:15.566Z,1.37
2019-03-09T09:56:43.277Z,3.57
2019-03-09T09:59:11.234Z,2.20
2019-03-09T10:01:39.205Z,2.47
2019-03-09T10:04:07.485Z,3.10
2019-03-09T10:06:35.135Z,2.30
2019-03-09T10:09:04.801Z,5.50
2019-03-09T10:11:32.452Z,2.53
2019-03-09T10:14:00.106Z,2.53
2019-03-09T10:16:28.117Z,3.43
2019-03-09T10:18:56.194Z,1.93
2019-03-09T10:21:24.093Z,6.43
2019-03-09T10:23:51.997Z,2.60
2019-03-09T10:26:19.957Z,2.13
2019-03-09T10:28:48.442Z,3.40
2019-03-09T10:31:16.724Z,4.43
2019-03-09T10:33:45.262Z,1.50
2019-03-09T10:36:12.945Z,5.23
2019-03-09T10:38:40.881Z,1.70
2019-03-09T10:41:09.178Z,1.40
2019-03-09T10:43:37.163Z,1.87
2019-03-09T10:46:05.147Z,1.60
2019-03-09T10:48:43.371Z,3.93
2019-03-09T10:51:11.505Z,1.40
2019-03-09T10:53:39.466Z,3.40
2019-03-09T10:56:07.297Z,1.97
2019-03-09T10:58:35.785Z,5.60
2019-03-09T11:01:03.834Z,1.60
2019-03-09T11:03:31.814Z,2.40
2019-03-09T11:05:59.963Z,2.40
2019-03-09T11:08:28.372Z,2.73
2019-03-09T11:10:56.605Z,1.30
2019-03-09T11:13:24.922Z,5.20
2019-03-09T11:15:52.969Z,2.00
2019-03-09T11:18:21.247Z,3.53
2019-03-09T11:20:49.413Z,3.63
2019-03-09T11:23:17.198Z,2.60
2019-03-09T11:25:45.114Z,2.40
2019-03-09T11:28:13.423Z,3.93
2019-03-09T11:30:41.484Z,3.20
2019-03-09T11:33:09.706Z,3.50
2019-03-09T11:35:37.712Z,4.70
2019-03-09T11:38:05.390Z,1.37
2019-03-09T11:40:33.702Z,1.60
2019-03-09T11:43:02.467Z,1.13
2019-03-09T11:45:30.747Z,1.30
2019-03-09T11:47:59.021Z,1.00
2019-03-09T11:50:27.057Z,1.80
2019-03-09T11:52:55.357Z,4.00
2019-03-09T11:55:23.012Z,1.07
2019-03-09T11:57:50.665Z,0.90
2019-03-09T12:00:23.174Z,2.00
2019-03-09T12:02:51.101Z,1.50
2019-03-09T12:05:19.669Z,2.20
2019-03-09T12:07:47.694Z,1.40
2019-03-09T12:10:15.348Z,1.00
2019-03-09T12:12:43.637Z,1.93
2019-03-09T12:15:11.378Z,1.30
2019-03-09T12:17:39.387Z,1.77
2019-03-09T12:20:07.478Z,1.20
2019-03-09T12:22:35.857Z,1.50
2019-03-09T12:25:05.898Z,1.37
2019-03-09T12:27:35.422Z,1.20
2019-03-09T12:30:04.078Z,1.10
2019-03-09T12:32:32.781Z,1.87
2019-03-09T12:35:01.042Z,1.60
2019-03-09T12:37:28.782Z,4.30
2019-03-09T12:39:57.111Z,2.03
2019-03-09T12:42:25.081Z,1.20
2019-03-09T12:44:53.097Z,1.60
2019-03-09T12:47:21.274Z,1.33
2019-03-09T12:49:49.710Z,1.00
2019-03-09T12:52:17.384Z,2.03
2019-03-09T12:54:45.475Z,2.00
2019-03-09T12:57:13.635Z,1.93
2019-03-09T12:59:41.361Z,2.23
2019-03-09T13:02:09.462Z,1.57
2019-03-09T13:04:37.207Z,1.80
2019-03-09T13:07:05.509Z,2.33
2019-03-09T13:09:33.489Z,1.93
2019-03-09T13:12:01.385Z,2.53
2019-03-09T13:14:29.366Z,2.57
2019-03-09T13:16:57.546Z,1.30
2019-03-09T13:19:25.506Z,1.30
2019-03-09T13:21:53.319Z,4.60
2019-03-09T13:24:21.698Z,1.43
2019-03-09T13:26:49.797Z,1.50
2019-03-09T13:29:17.738Z,2.87
2019-03-09T13:31:46.818Z,1.37
2019-03-09T13:34:14.533Z,1.57
2019-03-09T13:36:42.445Z,1.30
2019-03-09T13:39:11.180Z,1.77
2019-03-09T13:41:39.253Z,3.47
2019-03-09T13:44:06.891Z,1.60
2019-03-09T13:46:34.806Z,2.30
2019-03-09T13:49:02.898Z,3.17
2019-03-09T13:51:30.815Z,3.10
2019-03-09T13:53:58.487Z,2.63
2019-03-09T13:56:26.177Z,3.87
2019-03-09T13:58:54.224Z,11.60
2019-03-09T14:01:22.592Z,6.20
2019-03-09T14:03:51.176Z,10.13
2019-03-09T14:06:19.564Z,3.17
2019-03-09T14:08:48.334Z,8.93
2019-03-09T14:11:16.054Z,7.00
2019-03-09T14:13:44.248Z,10.70
2019-03-09T14:16:11.998Z,7.50
2019-03-09T14:18:40.245Z,13.83
2019-03-09T14:21:08.628Z,9.70
2019-03-09T14:23:36.289Z,14.40
2019-03-09T14:26:04.322Z,8.00
2019-03-09T14:28:32.069Z,8.63
2019-03-09T14:31:00.110Z,7.30
2019-03-09T14:35:53.314Z,4.73
2019-03-09T14:38:21.229Z,12.23
2019-03-09T14:40:49.253Z,5.27
2019-03-09T14:43:17.215Z,7.37
2019-03-09T14:45:45.193Z,10.10
2019-03-09T14:48:12.857Z,11.70
2019-03-09T14:50:40.826Z,7.23
2019-03-09T14:53:08.493Z,13.40
2019-03-09T14:55:36.458Z,15.13
2019-03-09T14:58:05.049Z,10.00
2019-03-09T15:00:32.738Z,15.67
2019-03-09T15:03:00.661Z,12.03
2019-03-09T15:05:28.690Z,19.13
2019-03-09T15:07:56.353Z,18.80
2019-03-09T15:10:24.265Z,10.47
2019-03-09T15:12:51.928Z,9.93
2019-03-09T15:15:20.050Z,12.27
2019-03-09T15:17:48.018Z,10.40
2019-03-09T15:20:15.769Z,12.47
2019-03-09T15:22:43.814Z,10.30
2019-03-09T15:25:12.604Z,8.73
2019-03-09T15:27:40.236Z,11.17
2019-03-09T15:30:09.302Z,14.17
2019-03-09T15:32:37.290Z,13.63
2019-03-09T15:35:04.973Z,20.07
2019-03-09T15:37:33.533Z,15.10
2019-03-09T15:40:01.822Z,19.53
2019-03-09T15:42:29.773Z,12.07
2019-03-09T15:44:58.089Z,16.20
2019-03-09T15:47:26.085Z,12.60
2019-03-09T15:49:54.497Z,19.97
2019-03-09T15:52:22.402Z,12.47
2019-03-09T15:54:51.133Z,14.07
2019-03-09T15:57:19.725Z,12.00
2019-03-09T15:59:47.861Z,8.33
2019-03-09T16:02:15.761Z,14.57
2019-03-09T16:04:43.433Z,12.77
2019-03-09T16:07:11.480Z,4.73
2019-03-09T16:09:39.426Z,10.03
2019-03-09T16:12:07.209Z,8.43
2019-03-09T16:14:35.685Z,11.80
2019-03-09T16:17:06.772Z,7.23
2019-03-09T16:19:34.804Z,14.23
2019-03-09T16:22:02.882Z,9.07
2019-03-09T16:24:30.825Z,10.40
2019-03-09T16:26:58.588Z,10.77
2019-03-09T16:29:26.596Z,10.50
2019-03-09T16:31:54.541Z,11.70
2019-03-09T16:34:22.501Z,11.10
2019-03-09T16:36:50.395Z,18.77
2019-03-09T16:39:18.386Z,14.37
2019-03-09T16:41:46.342Z,12.93
2019-03-09T16:44:14.428Z,7.50
2019-03-09T16:46:42.086Z,11.87
2019-03-09T16:49:10.106Z,13.23
2019-03-09T16:51:38.224Z,14.30
2019-03-09T16:54:06.146Z,15.40
2019-03-09T16:56:34.177Z,17.73
2019-03-09T16:59:02.098Z,15.30
2019-03-09T17:01:30.124Z,14.73
2019-03-09T17:03:58.085Z,11.17
2019-03-09T17:06:26.560Z,13.17
2019-03-09T17:08:54.227Z,10.57
2019-03-09T17:11:21.873Z,12.00
2019-03-09T17:13:49.972Z,12.53
2019-03-09T17:16:17.924Z,9.80
2019-03-09T17:18:45.585Z,10.90
2019-03-09T17:21:13.269Z,12.10
2019-03-09T17:23:41.472Z,7.47
2019-03-09T17:26:09.582Z,9.10
2019-03-09T17:28:37.221Z,8.93
2019-03-09T17:31:05.697Z,8.87
2019-03-09T17:33:33.456Z,7.30
2019-03-09T17:36:01.545Z,5.37
2019-03-09T17:38:30.101Z,8.87
2019-03-09T17:40:57.850Z,6.33
2019-03-09T17:43:25.793Z,4.60
2019-03-09T17:45:54.132Z,4.47
2019-03-09T17:48:22.097Z,8.03
2019-03-09T17:50:50.534Z,9.53
2019-03-09T17:53:18.201Z,5.47
2019-03-09T17:55:46.155Z,6.50
2019-03-09T17:58:14.128Z,7.20
2019-03-09T18:00:44.600Z,4.90
2019-03-09T18:03:12.639Z,4.90
2019-03-09T18:05:40.583Z,2.40
2019-03-09T18:08:08.554Z,8.23
2019-03-09T18:10:38.141Z,4.33
2019-03-09T18:13:05.814Z,9.50
2019-03-09T18:15:33.467Z,3.67
2019-03-09T18:18:01.824Z,5.83
2019-03-09T18:20:29.861Z,4.93
2019-03-09T18:22:57.850Z,5.67
2019-03-09T18:25:25.631Z,3.90
2019-03-09T18:27:53.332Z,9.13
2019-03-09T18:30:21.111Z,4.47
2019-03-09T18:32:49.442Z,11.73
2019-03-09T18:35:17.493Z,9.23
2019-03-09T18:37:45.536Z,9.50
2019-03-09T18:40:13.864Z,6.60
2019-03-09T18:42:41.583Z,9.60
2019-03-09T18:45:11.447Z,7.60
2019-03-09T18:47:39.527Z,8.90
2019-03-09T18:50:07.344Z,8.90
2019-03-09T18:52:35.184Z,4.73
2019-03-09T18:55:03.493Z,7.13
2019-03-09T18:57:31.506Z,10.67
2019-03-09T18:59:59.781Z,8.73
2019-03-09T19:02:27.504Z,9.13
2019-03-09T19:04:55.780Z,4.87
2019-03-09T19:07:23.925Z,7.40
2019-03-09T19:09:52.454Z,7.63
2019-03-09T19:12:20.607Z,5.87
2019-03-09T19:14:48.989Z,8.13
2019-03-09T19:17:17.040Z,8.47
2019-03-09T19:19:45.339Z,8.47
2019-03-09T19:22:13.104Z,11.83
2019-03-09T19:24:41.078Z,9.70
2019-03-09T19:29:48.854Z,8.50
2019-03-09T19:32:17.429Z,6.60
2019-03-09T19:34:45.442Z,4.10
2019-03-09T19:37:13.731Z,4.53
2019-03-09T19:39:41.808Z,6.13
2019-03-09T19:42:09.801Z,5.27
2019-03-09T19:44:37.850Z,3.73
2019-03-09T19:47:05.902Z,10.73
2019-03-09T19:49:34.390Z,4.50
2019-03-09T19:52:02.371Z,3.27
2019-03-09T19:54:30.454Z,5.00
2019-03-09T19:56:58.710Z,5.00
2019-03-09T19:59:26.442Z,6.90
2019-03-09T20:01:54.704Z,9.57
2019-03-09T20:04:23.021Z,4.70
2019-03-09T20:06:51.405Z,8.30
2019-03-09T20:09:19.369Z,6.33
2019-03-09T20:11:47.214Z,4.10
2019-03-09T20:14:15.753Z,4.97
2019-03-09T20:16:43.465Z,8.87
2019-03-09T20:19:11.549Z,3.60
2019-03-09T20:21:39.752Z,5.17
2019-03-09T20:24:07.406Z,2.33
2019-03-09T20:26:35.501Z,5.80
2019-03-09T20:29:03.873Z,3.47
2019-03-09T20:31:31.952Z,3.63
2019-03-09T20:33:59.610Z,1.97
2019-03-09T20:36:27.440Z,6.90
2019-03-09T20:38:55.172Z,3.47
2019-03-09T20:41:23.237Z,6.63
2019-03-09T20:43:51.327Z,1.53
2019-03-09T20:46:19.376Z,7.17
2019-03-09T20:48:47.130Z,6.97
2019-03-09T20:51:15.505Z,4.57
2019-03-09T20:53:43.217Z,9.27
2019-03-09T20:56:11.473Z,7.60
2019-03-09T20:58:39.674Z,4.20
2019-03-09T21:01:08.022Z,3.83
2019-03-09T21:03:36.965Z,4.03
2019-03-09T21:06:05.856Z,2.00
2019-03-09T21:08:34.286Z,3.87
2019-03-09T21:11:04.317Z,2.77
2019-03-09T21:13:32.409Z,6.33
2019-03-09T21:16:00.105Z,2.50
2019-03-09T21:18:28.137Z,10.77
2019-03-09T21:20:56.171Z,4.17
2019-03-09T21:23:24.315Z,6.57
2019-03-09T21:25:52.322Z,7.43
2019-03-09T21:28:20.038Z,4.90
2019-03-09T21:30:48.085Z,8.60
2019-03-09T21:33:16.570Z,7.13
2019-03-09T21:35:44.666Z,2.67
2019-03-09T21:38:12.758Z,5.23
2019-03-09T21:40:40.683Z,6.43
2019-03-09T21:43:08.772Z,6.33
2019-03-09T21:45:36.530Z,5.77
2019-03-09T21:48:04.646Z,10.97
2019-03-09T21:50:32.475Z,10.47
2019-03-09T21:53:00.437Z,13.57
2019-03-09T21:55:28.408Z,8.00
2019-03-09T21:57:56.373Z,11.03
2019-03-09T22:00:24.480Z,10.37
2019-03-09T22:02:52.846Z,6.47
2019-03-09T22:05:21.293Z,11.87
2019-03-09T22:07:49.005Z,9.93
2019-03-09T22:10:17.072Z,8.27
2019-03-09T22:12:45.160Z,14.17
2019-03-09T22:15:13.404Z,11.87
2019-03-09T22:17:41.422Z,12.73
2019-03-09T22:20:09.216Z,14.20
2019-03-09T22:22:37.182Z,16.50
2019-03-09T22:25:05.373Z,20.33
2019-03-09T22:27:33.735Z,16.70
2019-03-09T22:30:01.447Z,12.73
2019-03-09T22:32:29.176Z,13.90
2019-03-09T22:34:56.898Z,15.50
2019-03-09T22:37:24.936Z,12.03
2019-03-09T22:39:55.667Z,16.13
2019-03-09T22:42:23.353Z,14.57
2019-03-09T22:44:51.029Z,16.87
2019-03-09T22:47:18.745Z,18.43
2019-03-09T22:49:46.786Z,16.97
2019-03-09T22:52:15.302Z,15.90
2019-03-09T22:54:43.480Z,20.00
2019-03-09T22:57:11.222Z,19.63
2019-03-09T22:59:39.199Z,19.63
2019-03-09T23:02:07.397Z,15.80
2019-03-09T23:04:35.373Z,21.80
2019-03-09T23:07:03.305Z,19.07
2019-03-09T23:09:31.417Z,20.23
2019-03-09T23:11:59.419Z,21.97
2019-03-09T23:14:27.440Z,16.87
2019-03-09T23:16:55.102Z,24.00
2019-03-09T23:19:23.069Z,17.30
2019-03-09T23:21:51.350Z,23.63
2019-03-09T23:24:19.373Z,13.73
2019-03-09T23:26:47.659Z,14.30
2019-03-09T23:29:15.464Z,16.77
2019-03-09T23:31:44.202Z,22.80
2019-03-09T23:34:12.182Z,22.03
2019-03-09T23:36:40.295Z,24.00
2019-03-09T23:39:08.325Z,27.33
2019-03-09T23:41:36.397Z,28.63
2019-03-09T23:44:04.354Z,26.33
2019-03-09T23:46:32.285Z,21.67
2019-03-09T23:49:00.618Z,31.47
2019-03-09T23:51:28.657Z,24.93
2019-03-09T23:53:56.752Z,28.73
2019-03-09T23:56:25.040Z,30.60
2019-03-09T23:58:53.329Z,28.33
